Time;durP1;ratioP1;P1;durP2;ratioP2;P2;SDS_P1;SDS_P2;PMS_P1;PMS_P2;Temp;Humidity;BMP_temperature;BMP_pressure;BME280_temperature;BME280_humidity;BME280_pressure;Samples;Min_cycle;Max_cycle;Signal;HPM_P1;HPM_P2
2020/12/22 00:01:38;;;;;;;14.57;10.73;;;;;;;8.01;100.00;100069.13;5071761;28;20357;-74
2020/12/22 00:04:03;;;;;;;17.40;10.53;;;;;;;8.00;100.00;100054.00;5028717;28;20183;-74
2020/12/22 00:06:29;;;;;;;14.43;10.07;;;;;;;8.10;100.00;100055.66;5013367;28;20789;-73
2020/12/22 00:08:55;;;;;;;14.00;10.00;;;;;;;8.07;100.00;100050.72;5047846;28;20187;-74
2020/12/22 00:11:22;;;;;;;14.20;9.67;;;;;;;8.03;100.00;100048.03;5055095;28;20230;-73
2020/12/22 00:13:48;;;;;;;12.70;9.93;;;;;;;8.20;100.00;100033.19;5056091;28;20278;-73
2020/12/22 00:16:14;;;;;;;14.20;10.10;;;;;;;8.09;100.00;100031.53;5071069;28;20908;-74
2020/12/22 00:18:40;;;;;;;13.67;9.07;;;;;;;8.19;100.00;100032.38;5056104;28;20189;-74
2020/12/22 00:21:08;;;;;;;12.20;9.07;;;;;;;8.22;100.00;100010.22;5058664;28;20704;-74
2020/12/22 00:23:36;;;;;;;11.77;8.97;;;;;;;8.52;100.00;100023.69;5038383;28;20734;-74
2020/12/22 00:26:02;;;;;;;12.30;8.93;;;;;;;8.37;100.00;100012.88;5057278;28;20261;-74
2020/12/22 00:28:28;;;;;;;12.90;9.20;;;;;;;8.24;100.00;100008.03;5092382;28;20181;-75
2020/12/22 00:30:53;;;;;;;12.20;9.20;;;;;;;8.34;100.00;99997.19;5074991;28;20580;-74
2020/12/22 00:33:19;;;;;;;10.77;8.23;;;;;;;8.48;100.00;99992.84;5062874;28;20240;-74
2020/12/22 00:35:45;;;;;;;10.67;7.87;;;;;;;8.40;100.00;100000.69;5054433;28;20237;-74
2020/12/22 00:38:10;;;;;;;10.10;8.00;;;;;;;8.45;100.00;99990.66;5047094;28;20191;-74
2020/12/22 00:40:38;;;;;;;9.10;7.57;;;;;;;8.39;100.00;99967.44;5037328;28;20225;-74
2020/12/22 00:43:05;;;;;;;10.33;8.30;;;;;;;8.49;100.00;99972.78;5075326;28;20178;-75
2020/12/22 00:45:31;;;;;;;9.10;8.17;;;;;;;8.54;100.00;99962.75;5057470;28;20218;-75
2020/12/22 00:47:57;;;;;;;10.83;8.80;;;;;;;8.55;100.00;99967.09;5075288;28;20198;-74
2020/12/22 00:50:22;;;;;;;10.33;8.47;;;;;;;8.58;100.00;99971.16;5057786;28;20714;-74
2020/12/22 00:52:53;;;;;;;10.70;7.73;;;;;;;8.54;100.00;99951.94;5075466;28;20227;-75
2020/12/22 00:55:19;;;;;;;8.30;7.40;;;;;;;8.50;100.00;99950.88;5090524;28;20681;-74
2020/12/22 00:57:55;;;;;;;9.80;8.00;;;;;;;8.66;100.00;99941.63;5075547;28;20206;-74
2020/12/22 01:00:22;;;;;;;8.87;7.27;;;;;;;8.73;100.00;99957.56;5057575;28;20181;-75
2020/12/22 01:02:47;;;;;;;8.70;7.60;;;;;;;8.78;100.00;99944.00;5083710;28;20509;-75
2020/12/22 01:05:15;;;;;;;8.50;7.43;;;;;;;8.77;100.00;99936.97;5036879;28;20605;-73
2020/12/22 01:07:43;;;;;;;8.93;7.60;;;;;;;8.77;100.00;99947.78;5077882;28;20213;-74
2020/12/22 01:10:08;;;;;;;9.53;6.80;;;;;;;8.84;100.00;99944.53;5049823;28;20674;-74
2020/12/22 01:12:34;;;;;;;8.07;7.20;;;;;;;8.76;100.00;99936.16;5074756;28;20644;-73
2020/12/22 01:15:03;;;;;;;7.90;7.10;;;;;;;8.83;100.00;99932.06;5074387;28;20202;-74
2020/12/22 01:17:28;;;;;;;8.07;6.77;;;;;;;8.82;100.00;99939.66;5057365;28;20792;-74
2020/12/22 01:19:54;;;;;;;7.60;6.80;;;;;;;8.98;100.00;99940.09;5074643;28;20178;-75
2020/12/22 01:22:22;;;;;;;7.07;5.80;;;;;;;8.97;100.00;99926.84;5057403;28;20711;-74
2020/12/22 01:24:47;;;;;;;7.93;6.93;;;;;;;9.03;100.00;99921.13;5057346;28;20167;-75
2020/12/22 01:27:13;;;;;;;8.73;6.57;;;;;;;9.23;100.00;99921.00;5090645;28;20739;-74
2020/12/22 01:29:39;;;;;;;8.23;6.67;;;;;;;9.15;100.00;99908.03;5074280;28;20670;-72
2020/12/22 01:32:04;;;;;;;7.37;6.67;;;;;;;9.16;100.00;99915.06;5054717;28;20218;-74
2020/12/22 01:34:30;;;;;;;9.17;7.10;;;;;;;9.19;100.00;99909.06;5051776;28;20195;-75
2020/12/22 01:36:56;;;;;;;7.00;6.30;;;;;;;9.10;100.00;99908.09;5069127;28;20218;-73
2020/12/22 01:39:21;;;;;;;8.23;6.00;;;;;;;9.15;100.00;99891.78;5060509;28;20189;-74
2020/12/22 01:41:47;;;;;;;6.87;6.17;;;;;;;9.03;100.00;99888.63;5075611;28;20225;-75
2020/12/22 01:44:15;;;;;;;7.73;5.50;;;;;;;9.19;100.00;99898.25;5077052;28;20185;-75
2020/12/22 01:46:45;;;;;;;6.10;5.33;;;;;;;9.31;100.00;99896.00;5092864;28;20306;-75
2020/12/22 01:49:17;;;;;;;5.77;5.03;;;;;;;9.18;100.00;99891.22;5094287;28;20240;-73
2020/12/22 01:51:43;;;;;;;5.67;5.17;;;;;;;9.15;100.00;99880.13;5074567;28;20230;-73
2020/12/22 01:54:09;;;;;;;5.47;4.90;;;;;;;9.21;100.00;99890.63;5057632;28;20293;-72
2020/12/22 01:56:36;;;;;;;4.73;4.33;;;;;;;9.35;100.00;99886.22;5089980;28;20356;-73
2020/12/22 01:59:02;;;;;;;6.90;4.53;;;;;;;9.17;100.00;99878.75;5057271;28;20193;-74
2020/12/22 02:01:31;;;;;;;5.47;4.97;;;;;;;9.38;100.00;99866.69;5057690;28;20249;-74
2020/12/22 02:03:59;;;;;;;4.60;4.20;;;;;;;9.41;100.00;99857.97;5036870;28;20262;-74
2020/12/22 02:06:30;;;;;;;5.00;4.50;;;;;;;9.30;100.00;99851.84;5074716;28;20275;-75
2020/12/22 02:08:56;;;;;;;5.00;4.27;;;;;;;9.39;100.00;99855.53;5045416;28;20186;-74
2020/12/22 02:11:29;;;;;;;5.17;4.27;;;;;;;9.37;100.00;99852.31;5052915;28;20253;-74
2020/12/22 02:13:55;;;;;;;4.87;3.90;;;;;;;9.57;100.00;99848.63;5053412;28;20702;-75
2020/12/22 02:16:23;;;;;;;4.17;3.77;;;;;;;9.57;100.00;99846.72;5054640;28;20215;-74
2020/12/22 02:18:49;;;;;;;4.50;4.10;;;;;;;9.45;100.00;99837.34;5053620;28;20202;-74
2020/12/22 02:21:15;;;;;;;5.07;3.30;;;;;;;9.47;100.00;99832.44;5036125;28;20210;-75
2020/12/22 02:23:40;;;;;;;4.53;3.30;;;;;;;9.50;100.00;99824.53;5053517;28;20317;-75
2020/12/22 02:26:06;;;;;;;3.47;3.23;;;;;;;9.66;100.00;99829.53;5032599;28;20223;-74
2020/12/22 02:28:33;;;;;;;2.97;2.67;;;;;;;9.62;100.00;99825.78;5017119;28;20179;-74
2020/12/22 02:31:00;;;;;;;3.50;3.20;;;;;;;9.76;100.00;99815.91;5032685;28;20891;-74
2020/12/22 02:33:28;;;;;;;3.10;2.80;;;;;;;9.67;100.00;99820.31;5041136;28;20243;-74
2020/12/22 02:35:53;;;;;;;2.93;2.73;;;;;;;9.61;100.00;99816.06;5022327;28;20244;-74
2020/12/22 02:38:24;;;;;;;2.57;2.37;;;;;;;9.56;100.00;99811.75;5068450;28;20186;-74
2020/12/22 02:40:50;;;;;;;2.83;2.33;;;;;;;9.76;100.00;99806.94;5069730;28;20214;-74
2020/12/22 02:43:16;;;;;;;2.73;2.50;;;;;;;9.68;100.00;99805.66;5073314;28;20654;-74
2020/12/22 02:45:44;;;;;;;2.70;2.50;;;;;;;9.77;100.00;99797.72;5071825;28;21190;-75
2020/12/22 02:48:10;;;;;;;2.70;2.33;;;;;;;9.70;100.00;99792.63;5073233;28;20210;-74
2020/12/22 02:50:36;;;;;;;2.50;2.30;;;;;;;9.66;100.00;99790.78;5075136;28;20218;-74
2020/12/22 02:53:04;;;;;;;2.33;2.07;;;;;;;9.81;100.00;99788.69;5093778;28;20185;-74
2020/12/22 02:55:35;;;;;;;2.10;1.90;;;;;;;9.77;100.00;99792.28;5076445;28;20217;-75
2020/12/22 02:58:00;;;;;;;1.63;1.53;;;;;;;9.73;100.00;99794.78;5077096;28;20202;-75
2020/12/22 03:00:26;;;;;;;1.80;1.70;;;;;;;9.85;100.00;99784.31;5076462;28;20230;-74
2020/12/22 03:02:54;;;;;;;1.50;1.40;;;;;;;9.75;100.00;99784.44;5085091;28;20637;-74
2020/12/22 03:05:22;;;;;;;1.30;1.20;;;;;;;9.90;100.00;99781.56;5031995;28;20274;-75
2020/12/22 03:07:48;;;;;;;1.30;1.20;;;;;;;9.93;100.00;99772.88;5048745;28;20218;-74
2020/12/22 03:10:14;;;;;;;1.30;1.20;;;;;;;9.94;100.00;99774.47;5068079;28;20178;-74
2020/12/22 03:12:40;;;;;;;1.47;1.10;;;;;;;10.01;100.00;99772.22;5060030;28;20242;-74
2020/12/22 03:15:06;;;;;;;1.00;1.00;;;;;;;9.98;100.00;99764.66;5059829;28;20206;-74
2020/12/22 03:17:32;;;;;;;1.13;0.90;;;;;;;9.89;100.00;99763.69;5073431;28;20214;-74
2020/12/22 03:20:00;;;;;;;0.97;0.70;;;;;;;10.00;100.00;99755.16;5056952;28;20182;-75
2020/12/22 03:22:28;;;;;;;0.80;0.80;;;;;;;9.95;100.00;99756.31;5059863;28;20709;-74
2020/12/22 03:24:54;;;;;;;0.67;0.67;;;;;;;10.04;100.00;99749.97;5043783;28;20205;-74
2020/12/22 03:27:27;;;;;;;0.70;0.70;;;;;;;10.04;100.00;99741.81;5075613;28;20589;-75
2020/12/22 03:29:55;;;;;;;0.70;0.67;;;;;;;10.11;100.00;99737.66;5060580;28;20357;-74
2020/12/22 03:32:21;;;;;;;0.67;0.67;;;;;;;10.04;100.00;99734.47;5072161;28;20221;-74
2020/12/22 03:34:48;;;;;;;0.60;0.50;;;;;;;10.18;100.00;99729.13;5039756;28;20202;-75
2020/12/22 03:37:19;;;;;;;1.03;0.60;;;;;;;10.27;100.00;99721.97;5043153;28;20230;-74
2020/12/22 03:39:49;;;;;;;0.93;0.60;;;;;;;10.23;100.00;99720.94;5051969;28;20205;-74
2020/12/22 03:42:17;;;;;;;1.03;0.50;;;;;;;10.29;100.00;99714.31;5059529;28;20221;-74
2020/12/22 03:44:44;;;;;;;0.70;0.70;;;;;;;10.36;100.00;99714.78;5059328;28;20231;-74
2020/12/22 03:47:09;;;;;;;0.80;0.80;;;;;;;10.43;100.00;99705.16;5038639;28;20211;-74
2020/12/22 03:49:40;;;;;;;1.37;0.90;;;;;;;10.42;100.00;99709.78;5073298;28;20201;-73
2020/12/22 03:52:08;;;;;;;0.70;0.70;;;;;;;10.41;100.00;99702.75;5056804;28;20238;-74
2020/12/22 03:54:34;;;;;;;1.40;1.30;;;;;;;10.51;100.00;99702.59;5055614;28;20285;-74
2020/12/22 03:56:59;;;;;;;1.60;1.50;;;;;;;10.52;100.00;99708.84;5087814;28;20221;-74
2020/12/22 03:59:29;;;;;;;1.60;1.50;;;;;;;10.58;100.00;99713.88;5060247;28;20174;-74
2020/12/22 04:01:55;;;;;;;1.97;1.37;;;;;;;10.51;100.00;99701.78;5090554;28;20224;-74
2020/12/22 04:04:24;;;;;;;1.70;1.47;;;;;;;10.60;100.00;99706.25;5038686;28;20179;-73
2020/12/22 04:06:52;;;;;;;1.50;1.40;;;;;;;10.59;100.00;99704.63;5041416;28;20275;-74
2020/12/22 04:09:20;;;;;;;1.60;1.50;;;;;;;10.72;100.00;99693.03;5061645;28;20192;-73
2020/12/22 04:11:52;;;;;;;1.67;1.30;;;;;;;10.81;100.00;99693.97;5047690;28;20251;-74
2020/12/22 04:14:20;;;;;;;1.50;1.40;;;;;;;10.85;100.00;99700.41;5039068;28;20233;-73
2020/12/22 04:16:46;;;;;;;1.43;1.33;;;;;;;10.73;100.00;99702.78;5055656;28;20703;-72
2020/12/22 04:19:15;;;;;;;1.20;1.20;;;;;;;10.94;100.00;99690.47;5056191;28;20648;-75
2020/12/22 04:21:40;;;;;;;1.00;1.00;;;;;;;10.91;100.00;99685.63;5038251;28;20231;-74
2020/12/22 04:24:06;;;;;;;1.50;1.37;;;;;;;10.91;100.00;99691.06;5039097;28;20179;-74
2020/12/22 04:26:33;;;;;;;1.97;1.77;;;;;;;10.87;100.00;99695.47;5071096;28;20219;-74
2020/12/22 04:28:58;;;;;;;2.43;1.93;;;;;;;10.97;100.00;99687.16;5056091;28;20179;-72
2020/12/22 04:31:24;;;;;;;2.90;2.30;;;;;;;11.02;100.00;99703.38;5022508;28;20703;-74
2020/12/22 04:33:52;;;;;;;3.00;2.07;;;;;;;10.98;100.00;99686.06;5026245;28;20265;-75
2020/12/22 04:36:21;;;;;;;3.40;2.80;;;;;;;10.98;100.00;99686.06;5055381;28;20227;-75
2020/12/22 04:38:47;;;;;;;3.90;2.40;;;;;;;11.14;100.00;99685.50;5033149;28;20215;-74
2020/12/22 04:41:16;;;;;;;6.43;3.90;;;;;;;11.07;100.00;99678.84;5053738;28;20223;-74
2020/12/22 04:43:45;;;;;;;8.07;5.50;;;;;;;11.17;100.00;99690.31;5004881;28;20176;-74
2020/12/22 04:46:15;;;;;;;30.87;17.47;;;;;;;11.25;100.00;99670.63;5051956;28;20215;-74
2020/12/22 04:48:41;;;;;;;4.90;4.47;;;;;;;11.13;100.00;99681.16;5003955;28;20176;-75
2020/12/22 04:51:10;;;;;;;2.60;1.80;;;;;;;11.25;100.00;99671.41;5068259;28;20671;-74
2020/12/22 04:53:36;;;;;;;2.00;1.90;;;;;;;11.32;100.00;99685.41;5054810;28;20644;-75
2020/12/22 04:56:05;;;;;;;3.10;2.90;;;;;;;11.22;100.00;99685.59;5054241;28;20698;-75
2020/12/22 04:58:32;;;;;;;3.87;2.33;;;;;;;11.45;100.00;99676.50;5055014;28;20179;-74
2020/12/22 05:01:00;;;;;;;2.63;2.40;;;;;;;11.44;100.00;99691.19;5037982;28;20215;-74
2020/12/22 05:03:26;;;;;;;4.57;2.33;;;;;;;11.52;100.00;99687.78;5054848;28;20551;-74
2020/12/22 05:05:53;;;;;;;2.70;2.50;;;;;;;11.59;100.00;99683.56;5053447;28;20246;-74
2020/12/22 05:08:21;;;;;;;3.07;2.80;;;;;;;11.68;100.00;99686.38;5046354;28;20175;-74
2020/12/22 05:10:52;;;;;;;3.67;2.60;;;;;;;11.76;100.00;99682.97;5051783;28;20219;-75
2020/12/22 05:13:18;;;;;;;3.50;2.90;;;;;;;11.66;100.00;99685.88;5053587;28;20187;-74
2020/12/22 05:15:45;;;;;;;4.37;3.87;;;;;;;11.92;100.00;99685.84;5056327;28;20225;-74
2020/12/22 05:18:10;;;;;;;3.77;3.37;;;;;;;12.02;100.00;99682.91;5074512;28;20293;-74
2020/12/22 05:20:40;;;;;;;4.87;4.40;;;;;;;12.06;100.00;99689.34;5037300;28;20221;-74
2020/12/22 05:23:08;;;;;;;4.60;4.20;;;;;;;12.04;100.00;99690.78;5054412;28;20239;-74
2020/12/22 05:25:36;;;;;;;5.50;4.63;;;;;;;12.12;100.00;99677.22;5057279;28;20213;-74
2020/12/22 05:28:02;;;;;;;5.17;4.67;;;;;;;12.16;100.00;99680.97;5074212;28;20198;-74
2020/12/22 05:30:32;;;;;;;5.37;4.87;;;;;;;12.24;100.00;99685.69;5083290;28;20238;-74
2020/12/22 05:32:58;;;;;;;6.97;6.27;;;;;;;12.28;100.00;99684.75;5037837;28;20217;-75
2020/12/22 05:35:26;;;;;;;6.57;5.87;;;;;;;12.35;100.00;99693.31;5033696;28;20230;-74
2020/12/22 05:37:52;;;;;;;8.97;7.07;;;;;;;12.41;100.00;99686.63;5068207;28;20206;-75
2020/12/22 05:40:20;;;;;;;6.97;6.27;;;;;;;12.49;100.00;99690.53;5065668;28;20193;-74
2020/12/22 05:42:46;;;;;;;7.47;6.37;;;;;;;12.47;100.00;99690.88;5057550;28;20189;-74
2020/12/22 05:45:12;;;;;;;6.93;6.23;;;;;;;12.49;100.00;99687.81;5056204;28;20265;-74
2020/12/22 05:47:37;;;;;;;6.40;5.80;;;;;;;12.59;100.00;99698.50;5057263;28;20201;-75
2020/12/22 05:50:03;;;;;;;6.57;5.97;;;;;;;12.60;100.00;99686.47;5073186;28;20193;-74
2020/12/22 05:52:29;;;;;;;6.63;6.07;;;;;;;12.59;100.00;99691.13;5040610;28;20235;-74
2020/12/22 05:54:56;;;;;;;5.80;5.20;;;;;;;12.71;100.00;99691.38;5090151;28;20201;-73
2020/12/22 05:57:25;;;;;;;6.90;6.30;;;;;;;12.64;100.00;99706.56;5040654;28;20237;-74
2020/12/22 05:59:52;;;;;;;7.03;6.07;;;;;;;12.64;100.00;99706.56;5073882;28;20257;-73
2020/12/22 06:02:36;;;;;;;6.70;6.03;;;;;;;12.67;100.00;99700.47;5047574;28;20242;-74
2020/12/22 06:05:04;;;;;;;6.93;6.20;;;;;;;12.69;100.00;99705.31;5029039;28;20190;-74
2020/12/22 06:07:30;;;;;;;7.80;6.20;;;;;;;12.70;100.00;99708.84;5038894;28;20229;-74
2020/12/22 06:09:56;;;;;;;6.93;6.33;;;;;;;12.71;100.00;99699.56;5048240;28;20178;-74
2020/12/22 06:12:24;;;;;;;6.20;5.60;;;;;;;12.69;100.00;99697.13;5036371;28;20613;-74
2020/12/22 06:14:55;;;;;;;6.30;5.70;;;;;;;12.74;100.00;99696.19;5053969;28;20221;-74
2020/12/22 06:17:25;;;;;;;6.87;5.73;;;;;;;12.84;100.00;99704.97;5054540;28;20219;-74
2020/12/22 06:19:56;;;;;;;5.67;5.17;;;;;;;12.82;100.00;99709.94;5072281;28;20205;-74
2020/12/22 06:22:21;;;;;;;5.13;4.73;;;;;;;12.82;100.00;99704.47;5053295;28;20355;-74
2020/12/22 06:24:51;;;;;;;6.20;5.37;;;;;;;12.77;100.00;99712.72;5052799;28;20175;-74
2020/12/22 06:27:17;;;;;;;5.20;4.80;;;;;;;12.80;100.00;99709.44;5052484;28;20230;-74
2020/12/22 06:29:46;;;;;;;4.83;4.43;;;;;;;12.79;100.00;99713.25;5054098;28;20198;-74
2020/12/22 06:32:17;;;;;;;5.60;5.13;;;;;;;12.90;100.00;99733.69;5069121;28;20218;-74
2020/12/22 06:34:46;;;;;;;4.77;4.27;;;;;;;12.87;100.00;99723.41;5072095;28;20280;-75
2020/12/22 06:37:12;;;;;;;4.17;3.83;;;;;;;12.89;100.00;99731.28;5056593;28;20314;-74
2020/12/22 06:39:44;;;;;;;5.57;3.70;;;;;;;12.89;100.00;99731.28;5064869;28;20182;-74
2020/12/22 06:42:10;;;;;;;4.07;3.50;;;;;;;12.83;100.00;99727.88;5073173;28;20218;-74
2020/12/22 06:44:36;;;;;;;3.90;3.50;;;;;;;12.85;100.00;99735.75;5072554;28;20247;-74
2020/12/22 06:47:03;;;;;;;3.63;3.33;;;;;;;12.85;100.00;99736.53;5072255;28;20218;-73
2020/12/22 06:49:51;;;;;;;3.80;3.47;;;;;;;12.92;100.00;99741.56;5089749;28;20201;-74
2020/12/22 06:52:27;;;;;;;3.60;3.30;;;;;;;12.95;100.00;99736.31;5089267;28;20753;-74
2020/12/22 06:54:53;;;;;;;4.07;3.67;;;;;;;12.96;100.00;99737.91;5072729;28;20237;-74
2020/12/22 06:57:50;;;;;;;3.93;3.63;;;;;;;13.00;100.00;99747.06;5035860;28;20230;-74
2020/12/22 07:00:28;;;;;;;3.40;3.20;;;;;;;13.00;100.00;99744.34;5058889;28;20290;-73
2020/12/22 07:03:16;;;;;;;3.27;3.00;;;;;;;13.01;100.00;99748.69;5063714;28;20656;-74
2020/12/22 07:05:46;;;;;;;3.00;2.80;;;;;;;13.00;100.00;99744.34;5043833;28;20306;-74
2020/12/22 07:08:15;;;;;;;4.40;3.27;;;;;;;13.07;100.00;99756.44;5053663;28;20264;-74
2020/12/22 07:10:44;;;;;;;3.67;3.37;;;;;;;13.12;100.00;99752.78;5068019;28;20206;-74
2020/12/22 07:13:13;;;;;;;3.63;3.33;;;;;;;13.04;100.00;99761.72;5073494;28;20264;-74
2020/12/22 07:15:46;;;;;;;3.30;3.10;;;;;;;13.10;100.00;99760.47;5088676;28;20218;-74
2020/12/22 07:18:20;;;;;;;3.10;2.90;;;;;;;13.19;100.00;99753.16;5072967;28;20203;-74
2020/12/22 07:20:46;;;;;;;2.47;2.27;;;;;;;13.20;100.00;99760.22;5072569;28;20222;-74
2020/12/22 07:23:12;;;;;;;2.10;2.00;;;;;;;13.08;100.00;99759.97;5073105;28;20298;-74
2020/12/22 07:25:38;;;;;;;2.50;2.30;;;;;;;13.14;100.00;99767.72;5055220;28;20699;-74
2020/12/22 07:28:04;;;;;;;4.33;2.43;;;;;;;13.19;100.00;99764.88;5089839;28;20206;-74
2020/12/22 07:30:30;;;;;;;2.40;2.20;;;;;;;13.19;100.00;99769.53;5072419;28;20236;-74
2020/12/22 07:32:59;;;;;;;2.33;2.10;;;;;;;13.21;100.00;99778.19;5056003;28;20667;-74
2020/12/22 07:35:28;;;;;;;2.00;1.90;;;;;;;13.18;100.00;99778.81;5055048;28;20297;-74
2020/12/22 07:38:03;;;;;;;1.80;1.70;;;;;;;13.14;100.00;99786.78;5057575;28;20205;-74
2020/12/22 07:40:29;;;;;;;1.83;1.73;;;;;;;13.21;100.00;99789.09;5053394;28;20221;-73
2020/12/22 07:43:05;;;;;;;2.47;2.03;;;;;;;13.16;100.00;99791.94;5059848;28;20655;-73
2020/12/22 07:45:33;;;;;;;1.90;1.80;;;;;;;13.19;100.00;99799.53;5063290;28;20223;-74
2020/12/22 07:47:59;;;;;;;2.30;2.10;;;;;;;13.20;100.00;99806.56;5063721;28;20213;-74
2020/12/22 07:50:25;;;;;;;2.20;2.07;;;;;;;13.12;100.00;99810.84;5048313;28;20219;-74
2020/12/22 07:53:02;;;;;;;1.67;1.57;;;;;;;13.18;100.00;99811.53;5055600;28;20202;-73
2020/12/22 07:55:40;;;;;;;2.43;2.23;;;;;;;13.14;100.00;99813.28;5063302;28;20230;-75
2020/12/22 07:58:07;;;;;;;1.37;1.27;;;;;;;13.18;100.00;99822.44;5032046;28;20199;-75
2020/12/22 08:00:32;;;;;;;1.30;1.13;;;;;;;13.29;100.00;99821.09;5055081;28;20211;-73
2020/12/22 08:03:18;;;;;;;1.20;1.20;;;;;;;13.26;100.00;99821.69;5031404;28;20661;-73
2020/12/22 08:06:02;;;;;;;1.40;1.30;;;;;;;13.23;100.00;99816.88;5060798;28;20281;-73
2020/12/22 08:08:28;;;;;;;0.93;0.93;;;;;;;13.24;100.00;99834.81;5076286;28;20652;-73
2020/12/22 08:10:53;;;;;;;0.80;0.80;;;;;;;13.29;100.00;99829.25;5049375;28;20219;-73
2020/12/22 08:13:21;;;;;;;0.70;0.70;;;;;;;13.29;100.00;99835.50;5031113;28;20183;-73
2020/12/22 08:15:50;;;;;;;0.60;0.60;;;;;;;13.26;100.00;99844.34;5045175;28;20221;-73
2020/12/22 08:18:18;;;;;;;0.60;0.60;;;;;;;13.22;100.00;99846.06;5040705;28;20203;-73
2020/12/22 08:20:46;;;;;;;0.90;0.90;;;;;;;13.29;100.00;99845.63;5021028;28;20227;-73
2020/12/22 08:23:12;;;;;;;0.90;0.60;;;;;;;13.28;100.00;99849.50;5039287;28;20175;-74
2020/12/22 08:25:40;;;;;;;0.50;0.50;;;;;;;13.29;100.00;99853.81;5071105;28;20211;-73
2020/12/22 08:28:06;;;;;;;0.67;0.67;;;;;;;13.29;100.00;99862.00;5039025;28;20210;-74
2020/12/22 08:30:33;;;;;;;0.40;0.40;;;;;;;13.31;100.00;99857.03;5038330;28;20625;-73
2020/12/22 08:33:03;;;;;;;0.93;0.57;;;;;;;13.31;100.00;99859.75;5039509;28;20197;-73
2020/12/22 08:35:30;;;;;;;0.40;0.40;;;;;;;13.28;100.00;99860.41;5054918;28;20229;-73
2020/12/22 08:37:56;;;;;;;0.47;0.47;;;;;;;13.26;100.00;99859.88;5047724;28;20199;-73
2020/12/22 08:40:28;;;;;;;4.17;3.77;;;;;;;13.30;100.00;99869.06;5034676;28;20280;-72
2020/12/22 08:42:54;;;;;;;19.60;17.47;;;;;;;13.27;100.00;99870.47;5015530;28;20183;-73
2020/12/22 08:45:22;;;;;;;1.13;0.60;;;;;;;13.29;100.00;99876.44;5025599;28;20809;-73
2020/12/22 08:47:54;;;;;;;0.60;0.60;;;;;;;13.23;100.00;99876.88;5048967;28;20203;-73
2020/12/22 08:50:22;;;;;;;0.70;0.70;;;;;;;13.27;100.00;99875.13;5054698;28;20252;-73
2020/12/22 08:52:50;;;;;;;1.43;1.00;;;;;;;13.28;100.00;99876.75;5039438;28;20730;-72
2020/12/22 08:55:16;;;;;;;1.13;0.90;;;;;;;13.27;100.00;99880.59;5070687;28;20222;-72
2020/12/22 08:57:41;;;;;;;2.90;1.63;;;;;;;13.27;100.00;99886.03;5054709;28;20198;-72
2020/12/22 09:00:14;;;;;;;1.37;1.27;;;;;;;13.31;100.00;99892.50;5043808;28;20183;-73
2020/12/22 09:02:42;;;;;;;2.97;1.60;;;;;;;13.34;100.00;99880.97;5069975;28;20651;-73
2020/12/22 09:05:11;;;;;;;3.40;1.80;;;;;;;13.26;100.00;99900.78;5028670;28;20217;-72
2020/12/22 09:07:37;;;;;;;4.03;2.00;;;;;;;13.29;100.00;99908.34;5038158;28;20272;-72
2020/12/22 09:10:09;;;;;;;2.30;1.60;;;;;;;13.40;100.00;99896.09;5052924;28;20534;-73
2020/12/22 09:12:37;;;;;;;2.10;1.90;;;;;;;13.35;100.00;99893.47;5038605;28;20270;-72
2020/12/22 09:15:06;;;;;;;1.30;1.20;;;;;;;13.37;100.00;99907.63;5037026;28;20202;-73
2020/12/22 09:17:37;;;;;;;1.47;1.20;;;;;;;13.40;100.00;99907.00;5070858;28;20785;-72
2020/12/22 09:20:06;;;;;;;1.53;1.27;;;;;;;13.32;100.00;99903.09;5053987;28;20175;-72
2020/12/22 09:22:32;;;;;;;2.13;1.83;;;;;;;13.39;100.00;99927.22;5071424;28;20270;-72
2020/12/22 09:25:01;;;;;;;1.50;1.40;;;;;;;13.40;100.00;99923.38;5071047;28;20225;-72
2020/12/22 09:27:41;;;;;;;1.60;1.30;;;;;;;13.46;100.00;99912.84;5037285;28;20215;-72
2020/12/22 09:30:14;;;;;;;1.50;1.10;;;;;;;13.43;100.00;99914.59;5054525;28;20584;-72
2020/12/22 09:32:45;;;;;;;1.20;1.10;;;;;;;13.35;100.00;99932.50;5036927;28;20194;-73
2020/12/22 09:35:10;;;;;;;1.00;0.90;;;;;;;13.40;100.00;99934.28;5036780;28;20573;-72
2020/12/22 09:37:38;;;;;;;1.93;1.13;;;;;;;13.31;100.00;99933.41;5043922;28;20193;-72
2020/12/22 09:40:06;;;;;;;1.20;1.07;;;;;;;13.40;100.00;99934.28;5048654;28;20178;-73
2020/12/22 09:42:34;;;;;;;1.40;1.20;;;;;;;13.45;100.00;99945.88;5074154;28;20720;-73
2020/12/22 09:45:00;;;;;;;1.60;1.20;;;;;;;13.34;100.00;99936.31;5049191;28;20183;-72
2020/12/22 09:47:27;;;;;;;1.10;1.00;;;;;;;13.43;100.00;99944.59;5052355;28;20227;-72
2020/12/22 09:49:53;;;;;;;1.90;1.37;;;;;;;13.44;100.00;99951.66;5038006;28;20660;-72
2020/12/22 09:52:19;;;;;;;2.37;1.20;;;;;;;13.46;100.00;99940.13;5036837;28;20239;-72
2020/12/22 09:54:44;;;;;;;1.40;1.30;;;;;;;13.49;100.00;99944.16;5033423;28;20240;-73
2020/12/22 09:57:10;;;;;;;2.30;1.40;;;;;;;13.54;100.00;99935.88;5069939;28;20261;-72
2020/12/22 09:59:36;;;;;;;1.50;1.40;;;;;;;13.50;100.00;99941.13;5052159;28;20175;-73
2020/12/22 10:02:01;;;;;;;2.43;1.63;;;;;;;13.47;100.00;99940.94;5032323;28;20222;-73
2020/12/22 10:04:27;;;;;;;2.53;1.43;;;;;;;13.60;100.00;99946.34;5019483;28;20408;-73
2020/12/22 10:06:55;;;;;;;1.47;1.13;;;;;;;13.62;100.00;99946.81;5052563;28;20218;-73
2020/12/22 10:09:23;;;;;;;2.17;1.10;;;;;;;13.48;100.00;99943.34;5025640;28;20174;-73
2020/12/22 10:11:50;;;;;;;2.57;1.10;;;;;;;13.46;100.00;99959.22;5054345;28;20223;-73
2020/12/22 10:14:16;;;;;;;1.90;1.50;;;;;;;13.41;100.00;99963.19;5071524;28;20202;-73
2020/12/22 10:16:42;;;;;;;1.90;1.10;;;;;;;13.40;100.00;99961.56;5037986;28;20668;-72
2020/12/22 10:19:08;;;;;;;1.67;1.30;;;;;;;13.60;100.00;99957.25;5073086;28;20262;-73
2020/12/22 10:21:33;;;;;;;1.57;1.10;;;;;;;13.57;100.00;99959.78;5036193;28;20695;-71
2020/12/22 10:23:59;;;;;;;1.93;0.90;;;;;;;13.62;100.00;99968.66;5053313;28;20174;-71
2020/12/22 10:26:28;;;;;;;1.33;1.10;;;;;;;13.65;100.00;99957.13;5028038;28;20639;-71
2020/12/22 10:28:54;;;;;;;2.37;1.47;;;;;;;13.65;100.00;99959.88;5048128;28;20585;-72
2020/12/22 10:31:20;;;;;;;1.60;1.10;;;;;;;13.54;100.00;99958.50;5056477;28;20223;-72
2020/12/22 10:33:46;;;;;;;1.70;1.50;;;;;;;13.51;100.00;99958.28;5050626;28;20234;-75
2020/12/22 10:36:16;;;;;;;2.17;1.50;;;;;;;13.42;100.00;99954.69;5052598;28;20213;-73
2020/12/22 10:38:43;;;;;;;1.60;1.20;;;;;;;13.34;100.00;99963.59;5056476;28;20644;-74
2020/12/22 10:41:09;;;;;;;2.57;1.10;;;;;;;13.36;100.00;99966.03;5036533;28;20222;-72
2020/12/22 10:43:42;;;;;;;2.10;1.10;;;;;;;13.44;100.00;99962.56;5035958;28;20175;-73
2020/12/22 10:46:07;;;;;;;2.73;1.20;;;;;;;13.35;100.00;99970.69;5066173;28;20211;-73
2020/12/22 10:48:34;;;;;;;2.87;2.27;;;;;;;13.43;100.00;99972.69;5066108;28;20210;-73
2020/12/22 10:50:59;;;;;;;5.70;3.20;;;;;;;13.46;100.00;99961.16;5029231;28;20688;-72
2020/12/22 10:53:28;;;;;;;3.60;1.07;;;;;;;13.52;100.00;99954.47;5049883;28;20191;-73
2020/12/22 10:55:58;;;;;;;2.10;1.40;;;;;;;13.54;100.00;99957.69;5051030;28;20227;-74
2020/12/22 10:58:25;;;;;;;1.53;0.73;;;;;;;13.65;100.00;99964.53;5036239;28;20186;-73
2020/12/22 11:00:53;;;;;;;1.17;0.83;;;;;;;13.68;100.00;99970.19;5069224;28;20224;-73
2020/12/22 11:03:21;;;;;;;0.77;0.77;;;;;;;13.57;100.00;99957.88;5053011;28;20183;-73
2020/12/22 11:08:43;;;;;;;0.80;0.80;;;;;;;13.70;100.00;99981.59;5046828;28;20180;-74
2020/12/22 11:11:12;;;;;;;1.37;1.00;;;;;;;13.67;100.00;99982.19;5063110;28;20217;-74
2020/12/22 11:13:40;;;;;;;2.00;0.70;;;;;;;13.72;100.00;99982.09;5094043;28;20166;-73
2020/12/22 11:16:10;;;;;;;1.17;0.77;;;;;;;13.72;100.00;99987.53;5092252;28;20659;-73
2020/12/22 11:18:39;;;;;;;0.80;0.70;;;;;;;13.58;100.00;99996.88;5062352;28;20289;-73
2020/12/22 11:21:11;;;;;;;1.63;0.73;;;;;;;13.51;100.00;100008.22;5060048;28;20224;-73
2020/12/22 11:23:37;;;;;;;1.50;0.80;;;;;;;13.48;100.00;100019.75;5077611;28;20209;-73
2020/12/22 11:26:10;;;;;;;1.20;0.70;;;;;;;13.45;100.00;100031.28;5075917;28;20245;-73
2020/12/22 11:28:37;;;;;;;0.67;0.60;;;;;;;13.34;100.00;100028.28;5085163;28;20187;-73
2020/12/22 11:31:05;;;;;;;1.87;0.70;;;;;;;13.28;100.00;100034.94;5039685;28;20574;-73
2020/12/22 11:33:37;;;;;;;1.30;0.50;;;;;;;13.29;100.00;100052.91;5044607;28;20608;-73